Time;durP1;ratioP1;P1;durP2;ratioP2;P2;SDS_P1;SDS_P2;PMS_P1;PMS_P2;Temp;Humidity;BMP_temperature;BMP_pressure;BME280_temperature;BME280_humidity;BME280_pressure;Samples;Min_cycle;Max_cycle;Signal;HPM_P1;HPM_P2
2021/09/02 00:00:36;;;;;;;8.60;5.20;;;12.10;36.30;;;;;;4877408;28;20181;-86
2021/09/02 00:02:59;;;;;;;0.43;0.40;;;11.80;35.80;;;;;;4861924;28;20221;-85
2021/09/02 00:05:23;;;;;;;1.50;1.10;;;12.00;36.70;;;;;;4879525;28;20181;-86
2021/09/02 00:07:45;;;;;;;0.80;0.70;;;11.80;35.10;;;;;;4879549;28;20239;-83
2021/09/02 00:10:08;;;;;;;0.67;0.47;;;12.10;34.50;;;;;;4878636;28;20189;-85
2021/09/02 00:12:31;;;;;;;1.57;1.00;;;12.20;33.80;;;;;;4878196;28;20334;-83
2021/09/02 00:14:54;;;;;;;0.50;0.50;;;;;;;;;;4879933;28;20190;-87
2021/09/02 00:17:16;;;;;;;1.40;0.90;;;;;;;;;;4876515;28;20185;-82
2021/09/02 00:19:40;;;;;;;1.23;0.83;;;12.30;35.20;;;;;;4859884;28;20563;-85
2021/09/02 00:22:04;;;;;;;0.63;0.60;;;12.50;36.10;;;;;;4859631;28;20655;-85
2021/09/02 00:24:27;;;;;;;0.40;0.40;;;;;;;;;;4859765;28;20252;-82
2021/09/02 00:26:50;;;;;;;0.90;0.77;;;12.60;37.60;;;;;;4860355;28;20202;-77
2021/09/02 00:29:12;;;;;;;1.77;1.13;;;12.50;37.00;;;;;;4873795;28;20197;-77
2021/09/02 00:31:35;;;;;;;1.43;0.83;;;;;;;;;;4859348;28;20183;-78
2021/09/02 00:33:58;;;;;;;0.90;0.70;;;;;;;;;;4859309;28;20206;-77
2021/09/02 00:36:20;;;;;;;1.03;0.77;;;12.50;37.90;;;;;;4858925;28;20202;-78
2021/09/02 00:38:44;;;;;;;1.33;1.07;;;12.60;39.20;;;;;;4858473;28;20214;-77
2021/09/02 00:41:07;;;;;;;0.50;0.40;;;;;;;;;;4841118;28;20233;-77
2021/09/02 00:43:37;;;;;;;0.53;0.53;;;12.70;40.50;;;;;;4874450;28;20201;-78
2021/09/02 00:46:00;;;;;;;0.63;0.50;;;;;;;;;;4859089;28;20614;-78
2021/09/02 00:48:22;;;;;;;2.27;1.57;;;;;;;;;;4840490;28;20268;-80
2021/09/02 00:50:45;;;;;;;0.73;0.63;;;12.50;40.90;;;;;;4859467;28;20576;-78
2021/09/02 00:53:08;;;;;;;0.53;0.50;;;12.70;40.60;;;;;;4840975;28;20226;-78
2021/09/02 00:55:32;;;;;;;0.73;0.57;;;12.60;40.50;;;;;;4858596;28;20721;-78
2021/09/02 00:57:55;;;;;;;1.23;1.00;;;12.40;40.40;;;;;;4859148;28;20182;-77
2021/09/02 01:00:19;;;;;;;1.10;0.90;;;12.60;41.30;;;;;;4857755;28;20198;-79
2021/09/02 01:02:43;;;;;;;0.70;0.70;;;12.50;41.60;;;;;;4857133;28;20206;-77
2021/09/02 01:05:07;;;;;;;0.60;0.53;;;12.40;41.20;;;;;;4840893;28;20194;-77
2021/09/02 01:07:31;;;;;;;0.67;0.43;;;12.60;41.10;;;;;;4858596;28;20205;-77
2021/09/02 01:09:54;;;;;;;1.03;0.83;;;;;;;;;;4857890;28;20183;-78
2021/09/02 01:12:33;;;;;;;1.17;0.83;;;12.30;40.20;;;;;;4859729;28;20213;-77
2021/09/02 01:14:56;;;;;;;0.90;0.70;;;12.40;40.70;;;;;;4877666;28;20216;-79
2021/09/02 01:17:18;;;;;;;1.53;1.13;;;12.70;40.00;;;;;;4859688;28;20240;-78
2021/09/02 01:19:41;;;;;;;0.60;0.60;;;12.60;40.50;;;;;;4877185;28;20588;-77
2021/09/02 01:22:04;;;;;;;0.50;0.40;;;;;;;;;;4878006;28;20190;-80
2021/09/02 01:24:28;;;;;;;0.57;0.57;;;12.50;40.60;;;;;;4877691;28;20988;-77
2021/09/02 01:26:50;;;;;;;0.40;0.37;;;;;;;;;;4877645;28;20243;-77
2021/09/02 01:29:14;;;;;;;2.03;1.13;;;;;;;;;;4876690;28;20181;-79
2021/09/02 01:31:37;;;;;;;0.57;0.47;;;;;;;;;;4877731;28;20224;-78
2021/09/02 01:33:59;;;;;;;0.57;0.57;;;;;;;;;;4877610;28;20213;-78
2021/09/02 01:36:22;;;;;;;1.00;0.87;;;;;;;;;;4877533;28;20178;-77
2021/09/02 01:38:45;;;;;;;0.93;0.80;;;12.50;41.30;;;;;;4876596;28;20189;-77
2021/09/02 01:41:09;;;;;;;0.47;0.40;;;12.50;41.20;;;;;;4877079;28;20186;-78
2021/09/02 01:43:32;;;;;;;0.50;0.50;;;;;;;;;;4859289;28;20615;-78
2021/09/02 01:45:55;;;;;;;0.70;0.70;;;12.50;41.50;;;;;;4859310;28;20749;-79
2021/09/02 01:48:17;;;;;;;1.43;1.07;;;12.00;40.80;;;;;;4876569;28;20647;-79
2021/09/02 01:50:41;;;;;;;0.87;0.73;;;12.30;40.50;;;;;;4892492;28;20200;-80
2021/09/02 01:53:06;;;;;;;0.63;0.60;;;12.10;40.60;;;;;;4877118;28;20564;-77
2021/09/02 01:55:29;;;;;;;0.63;0.53;;;12.00;39.20;;;;;;4876806;28;20270;-77
2021/09/02 01:57:53;;;;;;;1.00;0.70;;;12.10;39.70;;;;;;4859159;28;20198;-79
2021/09/02 02:00:17;;;;;;;0.83;0.73;;;12.00;38.10;;;;;;4876024;28;20309;-77
2021/09/02 02:02:40;;;;;;;0.50;0.50;;;12.10;38.00;;;;;;4875551;28;20190;-77
2021/09/02 02:05:04;;;;;;;0.63;0.60;;;11.90;38.30;;;;;;4876912;28;20185;-85
2021/09/02 02:07:27;;;;;;;0.50;0.43;;;;;;;;;;4876871;28;20193;-77
2021/09/02 02:09:49;;;;;;;0.87;0.67;;;;;;;;;;4876186;28;20193;-78
2021/09/02 02:12:12;;;;;;;1.53;1.07;;;12.30;35.70;;;;;;4892067;28;20209;-78
2021/09/02 02:14:36;;;;;;;0.77;0.67;;;11.80;35.90;;;;;;4876538;28;20204;-78
2021/09/02 02:16:59;;;;;;;0.80;0.73;;;;;;;;;;4858835;28;20202;-78
2021/09/02 02:19:22;;;;;;;1.10;0.90;;;;;;;;;;4856057;28;20256;-78
2021/09/02 02:21:45;;;;;;;0.63;0.60;;;;;;;;;;4857346;28;20210;-79
2021/09/02 02:24:07;;;;;;;0.47;0.40;;;;;;;;;;4857249;28;20186;-78
2021/09/02 02:26:30;;;;;;;0.67;0.63;;;12.40;37.80;;;;;;4857388;28;20182;-78
2021/09/02 02:28:53;;;;;;;0.77;0.60;;;;;;;;;;4856250;28;20568;-79
2021/09/02 02:31:17;;;;;;;1.33;0.93;;;12.50;37.60;;;;;;4857073;28;20243;-78
2021/09/02 02:33:39;;;;;;;0.70;0.60;;;12.90;37.30;;;;;;4857097;28;20237;-78
2021/09/02 02:36:02;;;;;;;0.60;0.60;;;12.70;37.60;;;;;;4857173;28;20585;-78
2021/09/02 02:38:24;;;;;;;2.67;1.83;;;;;;;;;;4856286;28;20244;-79
2021/09/02 02:40:47;;;;;;;0.57;0.47;;;;;;;;;;4856957;28;20660;-79
2021/09/02 02:43:09;;;;;;;1.10;0.77;;;12.70;39.30;;;;;;4855570;28;20225;-78
2021/09/02 02:45:32;;;;;;;0.50;0.50;;;;;;;;;;4856959;28;20186;-79
2021/09/02 02:47:56;;;;;;;0.80;0.60;;;12.70;39.50;;;;;;4856989;28;20186;-78
2021/09/02 02:50:19;;;;;;;1.53;1.03;;;;;;;;;;4856288;28;20209;-80
2021/09/02 02:52:41;;;;;;;0.50;0.43;;;;;;;;;;4857623;28;20190;-86
2021/09/02 02:55:05;;;;;;;0.40;0.40;;;12.80;38.60;;;;;;4856782;28;20221;-85
2021/09/02 02:57:27;;;;;;;0.50;0.50;;;13.10;39.30;;;;;;4872754;28;20193;-85
2021/09/02 02:59:50;;;;;;;0.43;0.43;;;12.40;38.50;;;;;;4857074;28;20248;-85
2021/09/02 03:02:12;;;;;;;1.33;1.03;;;12.70;39.30;;;;;;4853494;28;20213;-87
2021/09/02 03:04:36;;;;;;;1.00;0.70;;;12.70;38.80;;;;;;4857968;28;20244;-86
2021/09/02 03:06:59;;;;;;;0.50;0.50;;;;;;;;;;4857121;28;20193;-84
2021/09/02 03:09:21;;;;;;;1.23;0.90;;;12.70;39.10;;;;;;4873310;28;20251;-85
2021/09/02 03:11:44;;;;;;;0.60;0.50;;;12.90;39.40;;;;;;4875810;28;20219;-85
2021/09/02 03:14:07;;;;;;;0.40;0.40;;;;;;;;;;4876063;28;20229;-81
2021/09/02 03:16:30;;;;;;;0.77;0.60;;;12.60;39.90;;;;;;4876486;28;20193;-84
2021/09/02 03:18:53;;;;;;;0.73;0.60;;;12.70;40.00;;;;;;4857894;28;20292;-83
2021/09/02 03:21:17;;;;;;;1.23;0.90;;;12.70;40.80;;;;;;4876118;28;20177;-85
2021/09/02 03:23:40;;;;;;;0.70;0.60;;;;;;;;;;4876452;28;20599;-83
2021/09/02 03:26:03;;;;;;;0.57;0.57;;;13.00;39.60;;;;;;4858366;28;20205;-84
2021/09/02 03:28:25;;;;;;;2.50;1.80;;;;;;;;;;4875198;28;20224;-82
2021/09/02 03:30:48;;;;;;;0.50;0.47;;;12.70;39.00;;;;;;4879244;28;20197;-80
2021/09/02 03:33:11;;;;;;;1.50;1.00;;;12.70;38.80;;;;;;4879655;28;20220;-83
2021/09/02 03:35:33;;;;;;;0.67;0.60;;;12.60;38.30;;;;;;4895587;28;20220;-84
2021/09/02 03:37:57;;;;;;;0.60;0.60;;;12.60;38.70;;;;;;4879855;28;20185;-87
2021/09/02 03:40:20;;;;;;;1.13;0.93;;;12.80;38.20;;;;;;4879639;28;20190;-86
2021/09/02 03:42:42;;;;;;;0.60;0.57;;;;;;;;;;4880048;28;20250;-85
2021/09/02 03:45:07;;;;;;;0.60;0.50;;;12.70;37.90;;;;;;4879988;28;20186;-84
2021/09/02 03:47:30;;;;;;;0.57;0.53;;;13.40;38.30;;;;;;4862496;28;20248;-85
2021/09/02 03:49:52;;;;;;;0.67;0.57;;;;;;;;;;4879214;28;20189;-85
2021/09/02 03:52:15;;;;;;;1.03;0.80;;;;;;;;;;4879680;28;20178;-86
2021/09/02 03:54:39;;;;;;;0.57;0.57;;;12.90;39.10;;;;;;4895522;28;20709;-87
2021/09/02 03:57:01;;;;;;;0.70;0.53;;;12.80;38.90;;;;;;4862254;28;20226;-86
2021/09/02 03:59:24;;;;;;;0.70;0.70;;;12.80;39.10;;;;;;4879359;28;20194;-85
2021/09/02 04:01:47;;;;;;;0.37;0.37;;;;;;;;;;4860333;28;20417;-84
2021/09/02 04:04:09;;;;;;;0.83;0.67;;;;;;;;;;4862197;28;20345;-87
2021/09/02 04:06:32;;;;;;;0.90;0.67;;;12.90;39.50;;;;;;4879726;28;20193;-87
2021/09/02 04:08:54;;;;;;;0.80;0.63;;;12.60;39.70;;;;;;4861333;28;20343;-86
2021/09/02 04:11:18;;;;;;;1.33;1.10;;;12.90;39.80;;;;;;4879934;28;20193;-88
2021/09/02 04:13:41;;;;;;;0.70;0.60;;;;;;;;;;4878557;28;20181;-86
2021/09/02 04:16:09;;;;;;;0.90;0.60;;;12.40;40.00;;;;;;4862534;28;20218;-84
2021/09/02 04:18:37;;;;;;;2.33;1.60;;;12.40;39.90;;;;;;4877859;28;20228;-86
2021/09/02 04:21:10;;;;;;;0.50;0.50;;;12.30;40.40;;;;;;4879441;28;20247;-87
2021/09/02 04:23:49;;;;;;;0.80;0.70;;;12.30;40.80;;;;;;4862952;28;20195;-85
2021/09/02 04:26:13;;;;;;;1.17;0.77;;;;;;;;;;4879981;28;20509;-83
2021/09/02 04:28:38;;;;;;;1.90;1.50;;;12.10;39.70;;;;;;4878731;28;20205;-85
2021/09/02 04:31:01;;;;;;;0.63;0.43;;;;;;;;;;4879509;28;20213;-85
2021/09/02 04:33:25;;;;;;;1.13;0.90;;;11.80;38.70;;;;;;4861169;28;20212;-86
2021/09/02 04:35:48;;;;;;;0.50;0.50;;;12.10;38.00;;;;;;4879041;28;20217;-84
2021/09/02 04:38:10;;;;;;;0.97;0.67;;;12.00;37.00;;;;;;4879297;28;20182;-87
2021/09/02 04:40:33;;;;;;;0.50;0.50;;;11.70;36.40;;;;;;4878580;28;20185;-85
2021/09/02 04:42:56;;;;;;;0.60;0.40;;;;;;;;;;4861226;28;20189;-87
2021/09/02 04:45:19;;;;;;;0.83;0.80;;;11.80;36.00;;;;;;4861328;28;20675;-85
2021/09/02 04:47:42;;;;;;;0.63;0.53;;;;;;;;;;4879081;28;20243;-87
2021/09/02 04:50:07;;;;;;;0.67;0.60;;;11.60;34.80;;;;;;4878739;28;20677;-87
2021/09/02 04:52:30;;;;;;;0.50;0.43;;;11.80;33.80;;;;;;4861128;28;20206;-88
2021/09/02 04:54:52;;;;;;;0.83;0.63;;;;;;;;;;4878409;28;20202;-78
2021/09/02 04:57:18;;;;;;;1.20;1.00;;;11.50;32.90;;;;;;4860137;28;20226;-80
2021/09/02 04:59:41;;;;;;;0.63;0.60;;;;;;;;;;4858928;28;20256;-85
2021/09/02 05:02:05;;;;;;;0.40;0.40;;;11.70;33.10;;;;;;4858404;28;20206;-78
2021/09/02 05:04:28;;;;;;;0.50;0.50;;;;;;;;;;4877782;28;20197;-77
2021/09/02 05:06:51;;;;;;;0.57;0.57;;;11.70;31.60;;;;;;4878282;28;20194;-76
2021/09/02 05:09:13;;;;;;;1.23;0.93;;;;;;;;;;4877010;28;20208;-78
2021/09/02 05:11:36;;;;;;;1.30;0.73;;;12.10;31.00;;;;;;4877822;28;20181;-78
2021/09/02 05:13:59;;;;;;;0.50;0.50;;;;;;;;;;4860121;28;20210;-77
2021/09/02 05:16:21;;;;;;;1.20;0.87;;;12.60;99.90;;;;;;4877554;28;20435;-80
2021/09/02 05:18:46;;;;;;;0.90;0.80;;;12.60;30.10;;;;;;4858468;28;20659;-83
2021/09/02 05:21:09;;;;;;;0.67;0.57;;;12.40;30.30;;;;;;4892948;28;20199;-78
2021/09/02 05:23:31;;;;;;;1.70;0.80;;;12.70;31.60;;;;;;4892768;28;20616;-79
2021/09/02 05:25:54;;;;;;;0.73;0.60;;;;;;;;;;4859607;28;20225;-80
2021/09/02 05:28:17;;;;;;;1.40;0.93;;;;;;;;;;4877161;28;20614;-77
2021/09/02 05:30:40;;;;;;;0.60;0.60;;;;;;;;;;4877111;28;20185;-80
2021/09/02 05:33:03;;;;;;;0.50;0.50;;;;;;;;;;4876045;28;20208;-81
2021/09/02 05:35:27;;;;;;;0.83;0.80;;;13.10;35.50;;;;;;4877040;28;20241;-81
2021/09/02 05:37:50;;;;;;;0.43;0.40;;;;;;;;;;4877414;28;20181;-80
2021/09/02 05:40:13;;;;;;;1.37;1.07;;;12.70;35.50;;;;;;4876432;28;20212;-79
2021/09/02 05:42:36;;;;;;;0.87;0.70;;;12.50;35.70;;;;;;4842901;28;20268;-80
2021/09/02 05:44:59;;;;;;;0.83;0.73;;;12.00;35.60;;;;;;4859244;28;20226;-80
2021/09/02 05:47:21;;;;;;;0.60;0.60;;;;;;;;;;4875041;28;20247;-81
2021/09/02 05:49:44;;;;;;;0.50;0.50;;;;;;;;;;4876908;28;20193;-78
2021/09/02 05:52:09;;;;;;;0.37;0.37;;;12.80;36.70;;;;;;4875846;28;20259;-80
2021/09/02 05:54:32;;;;;;;0.60;0.60;;;13.30;36.10;;;;;;4876774;28;20186;-88
2021/09/02 05:56:54;;;;;;;0.63;0.60;;;;;;;;;;4876711;28;20233;-76
2021/09/02 05:59:17;;;;;;;1.27;1.03;;;13.00;37.70;;;;;;4891014;28;20185;-79
2021/09/02 06:01:40;;;;;;;0.60;0.50;;;;;;;;;;4874916;28;20193;-81
2021/09/02 06:04:02;;;;;;;0.37;0.37;;;;;;;;;;4876751;28;20200;-83
2021/09/02 06:06:25;;;;;;;0.97;0.77;;;;;;;;;;4860109;28;20667;-86
2021/09/02 06:08:49;;;;;;;0.40;0.40;;;14.10;42.90;;;;;;4876011;28;20194;-86
2021/09/02 06:11:12;;;;;;;1.47;1.10;;;;;;;;;;4859518;28;20671;-89
2021/09/02 06:13:35;;;;;;;1.07;0.73;;;;;;;;;;4876397;28;20631;-87
2021/09/02 06:15:58;;;;;;;0.90;0.63;;;;;;;;;;4859202;28;20650;-86
2021/09/02 06:18:20;;;;;;;0.70;0.67;;;;;;;;;;4847721;28;20244;-81
2021/09/02 06:20:43;;;;;;;0.50;0.50;;;14.50;45.50;;;;;;4840368;28;20857;-87
2021/09/02 06:23:05;;;;;;;0.60;0.50;;;;;;;;;;4858046;28;20185;-86
2021/09/02 06:25:29;;;;;;;0.53;0.30;;;14.60;46.70;;;;;;4857519;28;20765;-82
2021/09/02 06:27:52;;;;;;;1.43;0.67;;;14.90;46.40;;;;;;4856612;28;20700;-89
2021/09/02 06:30:15;;;;;;;1.50;1.10;;;14.90;46.90;;;;;;4838909;28;20202;-81
2021/09/02 06:32:38;;;;;;;0.97;0.63;;;;;;;;;;4840315;28;20210;-86
2021/09/02 06:35:00;;;;;;;0.50;0.50;;;;;;;;;;4857228;28;20236;-85
2021/09/02 06:37:23;;;;;;;0.53;0.50;;;;;;;;;;4857910;28;20230;-81
2021/09/02 06:39:45;;;;;;;0.53;0.50;;;14.60;46.90;;;;;;4857107;28;20186;-86
2021/09/02 06:42:10;;;;;;;0.30;0.30;;;14.60;47.40;;;;;;4857449;28;20325;-81
2021/09/02 06:44:32;;;;;;;0.53;0.53;;;;;;;;;;4857048;28;20542;-83
2021/09/02 06:46:55;;;;;;;0.93;0.70;;;;;;;;;;4857370;28;20197;-82
2021/09/02 06:49:19;;;;;;;1.53;1.00;;;14.50;47.30;;;;;;4872028;28;20284;-85
2021/09/02 06:51:42;;;;;;;0.50;0.50;;;14.40;46.70;;;;;;4857605;28;20189;-84
2021/09/02 06:54:04;;;;;;;0.80;0.60;;;14.70;46.80;;;;;;4841157;28;20268;-86
2021/09/02 06:56:27;;;;;;;1.13;0.83;;;;;;;;;;4876514;28;20779;-86
2021/09/02 06:58:51;;;;;;;0.43;0.43;;;14.40;47.20;;;;;;4875837;28;20258;-84
2021/09/02 07:01:15;;;;;;;1.27;0.87;;;14.70;46.60;;;;;;4875650;28;20201;-87
2021/09/02 07:03:39;;;;;;;0.50;0.50;;;15.10;46.70;;;;;;4877108;28;20181;-83
2021/09/02 07:06:05;;;;;;;0.60;0.53;;;;;;;;;;4877693;28;20551;-84
2021/09/02 07:08:28;;;;;;;3.50;1.77;;;;;;;;;;4876705;28;20953;-82
2021/09/02 07:10:51;;;;;;;0.87;0.53;;;14.80;46.90;;;;;;4876616;28;20670;-82
2021/09/02 07:13:13;;;;;;;1.83;1.10;;;;;;;;;;4891609;28;20678;-80
2021/09/02 07:15:37;;;;;;;1.13;0.73;;;15.40;47.40;;;;;;4878313;28;20197;-81
2021/09/02 07:18:05;;;;;;;0.97;0.60;;;15.20;47.50;;;;;;4870785;28;20194;-84
2021/09/02 07:20:45;;;;;;;1.00;0.63;;;15.70;48.00;;;;;;4878937;28;20222;-82
2021/09/02 07:23:08;;;;;;;0.90;0.50;;;15.40;47.80;;;;;;4876753;28;20236;-86
2021/09/02 07:25:31;;;;;;;1.00;0.73;;;;;;;;;;4877714;28;20177;-75
2021/09/02 07:27:54;;;;;;;0.87;0.60;;;;;;;;;;4876065;28;20205;-78
2021/09/02 07:30:17;;;;;;;1.80;1.10;;;;;;;;;;4875258;28;20250;-77
2021/09/02 07:32:41;;;;;;;0.77;0.50;;;16.70;49.60;;;;;;4858161;28;20217;-77
2021/09/02 07:35:04;;;;;;;0.60;0.50;;;16.20;48.90;;;;;;4857867;28;20252;-78
2021/09/02 07:37:27;;;;;;;2.03;1.20;;;;;;;;;;4875345;28;20201;-76
2021/09/02 07:39:50;;;;;;;0.83;0.50;;;;;;;;;;4874771;28;20236;-76
2021/09/02 07:42:12;;;;;;;1.80;1.10;;;16.50;49.60;;;;;;4840902;28;20221;-76
2021/09/02 07:44:40;;;;;;;0.83;0.60;;;16.50;49.20;;;;;;4875591;28;20227;-79
2021/09/02 07:47:06;;;;;;;0.90;0.60;;;;;;;;;;4859479;28;20210;-77
2021/09/02 07:49:37;;;;;;;0.50;0.33;;;16.90;50.00;;;;;;4875904;28;20190;-83
2021/09/02 07:52:00;;;;;;;0.97;0.53;;;;;;;;;;4875398;28;20189;-76
2021/09/02 07:54:22;;;;;;;1.60;1.03;;;;;;;;;;4875321;28;20701;-79
2021/09/02 07:56:45;;;;;;;1.20;0.70;;;;;;;;;;4874956;28;20241;-76
2021/09/02 07:59:08;;;;;;;0.90;0.50;;;17.20;50.40;;;;;;4874463;28;20185;-77
2021/09/02 08:01:31;;;;;;;1.17;0.67;;;17.90;50.30;;;;;;4873431;28;20709;-76
2021/09/02 08:03:53;;;;;;;1.00;0.50;;;17.10;49.80;;;;;;4875204;28;20601;-76
2021/09/02 08:06:17;;;;;;;1.77;0.80;;;17.60;50.20;;;;;;4875004;28;20260;-77
2021/09/02 08:08:40;;;;;;;3.10;1.57;;;17.80;50.50;;;;;;4874384;28;20196;-79
2021/09/02 08:11:02;;;;;;;0.50;0.30;;;;;;;;;;4875190;28;20188;-77
2021/09/02 08:13:28;;;;;;;2.07;1.13;;;;;;;;;;4875225;28;20190;-77
2021/09/02 08:15:50;;;;;;;0.60;0.40;;;18.50;51.60;;;;;;4857189;28;20237;-77
2021/09/02 08:18:13;;;;;;;2.30;1.13;;;;;;;;;;4860129;28;20244;-77
2021/09/02 08:20:37;;;;;;;1.23;0.70;;;18.70;51.80;;;;;;4877972;28;20181;-79
2021/09/02 08:23:01;;;;;;;1.03;0.63;;;18.90;52.70;;;;;;4861009;28;20182;-76
2021/09/02 08:25:24;;;;;;;2.50;1.23;;;19.50;53.10;;;;;;4878605;28;20246;-76
2021/09/02 08:27:47;;;;;;;1.30;0.77;;;;;;;;;;4878314;28;20288;-76
2021/09/02 08:30:11;;;;;;;0.80;0.50;;;19.30;52.50;;;;;;4877351;28;20201;-78
2021/09/02 08:32:34;;;;;;;1.70;0.90;;;18.90;52.70;;;;;;4878289;28;20231;-78
2021/09/02 08:34:56;;;;;;;1.03;0.60;;;;;;;;;;4860650;28;20190;-76
2021/09/02 08:37:19;;;;;;;1.70;1.00;;;19.50;52.60;;;;;;4877839;28;20236;-78
2021/09/02 08:39:43;;;;;;;2.07;0.90;;;19.10;52.90;;;;;;4877271;28;20587;-77
2021/09/02 08:42:09;;;;;;;1.20;0.70;;;;;;;;;;4860172;28;20213;-77
2021/09/02 08:44:32;;;;;;;1.00;0.63;;;;;;;;;;4878043;28;20236;-79
2021/09/02 08:46:56;;;;;;;0.80;0.50;;;19.80;53.60;;;;;;4878101;28;20186;-79
2021/09/02 08:49:32;;;;;;;2.57;1.20;;;19.80;53.50;;;;;;4892401;28;20716;-81
2021/09/02 08:51:56;;;;;;;1.27;0.70;;;;;;;;;;4876476;28;20207;-78
2021/09/02 08:54:19;;;;;;;1.77;0.83;;;;;;;;;;4877535;28;20197;-78
2021/09/02 08:56:43;;;;;;;1.70;0.83;;;20.70;54.90;;;;;;4892942;28;20247;-78
2021/09/02 08:59:06;;;;;;;1.13;0.70;;;;;;;;;;4877047;28;20548;-78
2021/09/02 09:01:28;;;;;;;1.03;0.60;;;;;;;;;;4875869;28;20420;-77
2021/09/02 09:03:52;;;;;;;1.03;0.57;;;;;;;;;;4892871;28;20215;-78
2021/09/02 09:06:24;;;;;;;3.10;1.40;;;22.90;56.60;;;;;;4877354;28;20647;-80
2021/09/02 09:08:48;;;;;;;1.20;0.60;;;25.00;50.90;;;;;;4876806;28;20209;-81
2021/09/02 09:11:16;;;;;;;2.17;1.03;;;26.80;44.70;;;;;;4859596;28;20275;-79
2021/09/02 09:13:40;;;;;;;3.30;1.23;;;28.40;45.80;;;;;;4877099;28;20563;-76
2021/09/02 09:16:02;;;;;;;1.20;0.57;;;27.60;45.90;;;;;;4876468;28;20257;-78
2021/09/02 09:18:26;;;;;;;7.47;2.70;;;28.90;47.10;;;;;;4876441;28;20208;-82
2021/09/02 09:21:06;;;;;;;1.30;0.60;;;30.50;47.30;;;;;;4877602;28;20736;-78
2021/09/02 09:23:50;;;;;;;2.13;0.73;;;31.80;48.60;;;;;;4877547;28;20288;-81
2021/09/02 09:26:13;;;;;;;4.33;1.27;;;;;;;;;;4877168;28;20177;-82
2021/09/02 09:28:36;;;;;;;8.83;2.53;;;;;;;;;;4876259;28;20184;-86
2021/09/02 09:31:20;;;;;;;2.13;0.70;;;32.10;48.90;;;;;;4877560;28;20182;-88
2021/09/02 09:33:52;;;;;;;3.00;0.87;;;32.50;48.90;;;;;;4859291;28;20202;-79
2021/09/02 09:36:15;;;;;;;4.97;1.50;;;;;;;;;;4842509;28;20252;-81
2021/09/02 09:38:40;;;;;;;8.93;2.60;;;;;;;;;;4876164;28;20324;-83
2021/09/02 09:41:09;;;;;;;1.67;0.67;;;31.90;49.10;;;;;;4877364;28;20230;-83
2021/09/02 09:43:32;;;;;;;3.50;0.93;;;;;;;;;;4876647;28;20249;-78
2021/09/02 09:45:56;;;;;;;1.50;0.60;;;30.10;48.50;;;;;;4877038;28;20246;-79
2021/09/02 09:48:35;;;;;;;3.50;1.27;;;29.50;48.20;;;;;;4876439;28;20186;-79
2021/09/02 09:51:16;;;;;;;1.87;0.80;;;29.40;47.40;;;;;;4859077;28;20748;-78
2021/09/02 09:53:40;;;;;;;2.70;0.93;;;30.10;47.60;;;;;;4858448;28;20186;-83
2021/09/02 09:56:03;;;;;;;2.33;0.80;;;;;;;;;;4876522;28;20228;-79
2021/09/02 09:58:28;;;;;;;7.80;2.53;;;31.80;49.00;;;;;;4875789;28;20295;-80
2021/09/02 10:00:53;;;;;;;1.50;0.57;;;32.80;48.70;;;;;;4874863;28;20236;-79
2021/09/02 10:03:16;;;;;;;4.53;1.50;;;;;;;;;;4876377;28;20186;-81
2021/09/02 10:05:42;;;;;;;2.23;0.83;;;32.90;49.60;;;;;;4876777;28;20186;-80
2021/09/02 10:08:05;;;;;;;1.87;0.73;;;;;;;;;;4876783;28;20195;-80
2021/09/02 10:10:28;;;;;;;5.20;1.50;;;;;;;;;;4875563;28;20659;-80
2021/09/02 10:12:51;;;;;;;1.45;0.50;;;36.40;50.30;;;;;;4858997;28;20201;-83
2021/09/02 10:15:15;;;;;;;5.63;1.45;;;38.00;51.00;;;;;;4891772;28;20188;-81
2021/09/02 10:17:40;;;;;;;4.60;1.10;;;39.10;52.00;;;;;;4876166;28;20266;-80
2021/09/02 10:20:05;;;;;;;5.07;1.00;;;40.20;52.20;;;;;;4876062;28;20230;-82
2021/09/02 10:22:30;;;;;;;2.55;0.55;;;40.30;52.50;;;;;;4875747;28;20258;-84
2021/09/02 10:24:53;;;;;;;4.78;1.00;;;38.50;51.20;;;;;;4858500;28;20233;-79
2021/09/02 10:27:36;;;;;;;9.77;1.90;;;39.20;51.70;;;;;;4890915;28;20204;-79
2021/09/02 10:29:58;;;;;;;3.78;0.85;;;41.20;52.10;;;;;;4856499;28;20220;-83
2021/09/02 10:32:31;;;;;;;7.10;1.50;;;40.10;52.40;;;;;;4856994;28;20190;-82
2021/09/02 10:34:54;;;;;;;4.45;0.95;;;39.60;51.60;;;;;;4857003;28;20184;-81
2021/09/02 10:37:49;;;;;;;8.30;1.75;;;38.90;51.30;;;;;;4838606;28;20203;-84
2021/09/02 10:40:45;;;;;;;4.45;1.00;;;39.90;51.60;;;;;;4824761;28;20571;-82
2021/09/02 10:43:07;;;;;;;3.60;0.73;;;40.90;52.00;;;;;;4871881;28;20205;-83
2021/09/02 10:45:34;;;;;;;3.15;0.73;;;41.80;53.00;;;;;;4856978;28;20193;-82
2021/09/02 10:47:59;;;;;;;3.83;0.73;;;42.50;52.70;;;;;;4856978;28;20640;-81
2021/09/02 10:50:23;;;;;;;6.63;1.30;;;42.80;53.50;;;;;;4855888;28;20248;-85
2021/09/02 10:52:46;;;;;;;5.13;1.02;;;43.40;53.60;;;;;;4856885;28;20204;-83
2021/09/02 10:55:28;;;;;;;2.97;0.60;;;44.00;53.90;;;;;;4856582;28;20256;-82
2021/09/02 10:57:51;;;;;;;2.67;0.52;;;42.40;53.50;;;;;;4856823;28;20209;-83
2021/09/02 11:00:33;;;;;;;6.78;1.38;;;40.50;52.00;;;;;;4855774;28;20609;-82
2021/09/02 11:03:12;;;;;;;3.90;0.88;;;40.80;52.90;;;;;;4856639;28;20173;-85
2021/09/02 11:05:35;;;;;;;2.90;0.70;;;;;;;;;;4855143;28;20193;-82
2021/09/02 11:07:58;;;;;;;3.22;0.70;;;40.30;52.10;;;;;;4838886;28;20227;-83
2021/09/02 11:10:22;;;;;;;7.13;1.50;;;39.90;52.60;;;;;;4837893;28;20326;-80
2021/09/02 11:12:45;;;;;;;3.22;0.70;;;39.90;51.90;;;;;;4838770;28;20623;-79
2021/09/02 11:15:11;;;;;;;4.15;0.95;;;39.40;52.50;;;;;;4856523;28;20181;-80
2021/09/02 11:17:34;;;;;;;4.30;0.93;;;38.60;52.10;;;;;;4860891;28;20188;-84
2021/09/02 11:19:56;;;;;;;3.22;0.77;;;37.50;50.90;;;;;;4875123;28;20185;-80
2021/09/02 11:22:19;;;;;;;7.55;1.67;;;35.80;50.40;;;;;;4875373;28;20725;-81
2021/09/02 11:24:45;;;;;;;4.05;1.00;;;34.80;50.00;;;;;;4875451;28;20232;-78
2021/09/02 11:27:08;;;;;;;5.07;1.15;;;;;;;;;;4875340;28;20619;-82
2021/09/02 11:29:30;;;;;;;2.80;0.75;;;35.30;50.20;;;;;;4856861;28;20710;-81
2021/09/02 11:32:01;;;;;;;3.85;0.93;;;35.80;51.20;;;;;;4891181;28;20642;-84
2021/09/02 11:34:24;;;;;;;7.20;1.75;;;;;;;;;;4875561;28;20243;-80
2021/09/02 11:36:46;;;;;;;4.53;1.00;;;34.30;49.80;;;;;;4875661;28;20239;-81
2021/09/02 11:39:09;;;;;;;2.72;0.70;;;33.50;50.30;;;;;;4890135;28;20950;-78
2021/09/02 11:41:32;;;;;;;3.17;0.73;;;;;;;;;;4875566;28;20185;-83
2021/09/02 11:43:55;;;;;;;4.28;0.98;;;;;;;;;;4875652;28;20184;-77
2021/09/02 11:46:17;;;;;;;7.33;1.63;;;;;;;;;;4875655;28;20207;-86
2021/09/02 11:48:50;;;;;;;8.67;1.77;;;32.20;48.90;;;;;;4856469;28;20241;-78
2021/09/02 11:51:12;;;;;;;4.97;1.13;;;;;;;;;;4877452;28;20242;-84
2021/09/02 11:53:35;;;;;;;4.25;0.90;;;;;;;;;;4894173;28;20616;-82
2021/09/02 11:56:11;;;;;;;3.05;0.80;;;31.00;48.60;;;;;;4878670;28;20251;-79
2021/09/02 11:58:34;;;;;;;12.03;2.80;;;;;;;;;;4878165;28;20246;-80
2021/09/02 12:01:00;;;;;;;2.73;0.77;;;30.70;49.30;;;;;;4877294;28;20190;-78
2021/09/02 12:03:23;;;;;;;6.23;1.57;;;;;;;;;;4878739;28;20618;-76
2021/09/02 12:05:52;;;;;;;3.47;0.90;;;30.60;48.30;;;;;;4878925;28;20185;-77
2021/09/02 12:08:15;;;;;;;4.60;1.30;;;30.00;49.00;;;;;;4878487;28;20210;-78
2021/09/02 12:10:38;;;;;;;2.40;0.73;;;29.50;48.80;;;;;;4878340;28;20188;-82
2021/09/02 12:13:20;;;;;;;2.23;0.80;;;29.00;48.20;;;;;;4878712;28;20215;-81
2021/09/02 12:15:42;;;;;;;1.60;0.70;;;;;;;;;;4878911;28;20649;-77
2021/09/02 12:18:07;;;;;;;1.63;0.70;;;29.20;47.80;;;;;;4869780;28;20596;-80
2021/09/02 12:20:30;;;;;;;2.03;0.67;;;;;;;;;;4840745;28;20199;-78
2021/09/02 12:22:54;;;;;;;3.27;0.90;;;36.10;51.00;;;;;;4859332;28;20188;-81
2021/09/02 12:25:19;;;;;;;8.52;1.48;;;38.90;51.10;;;;;;4841446;28;20686;-85
2021/09/02 12:27:46;;;;;;;7.90;1.40;;;41.40;51.70;;;;;;4859229;28;20229;-85
2021/09/02 12:30:12;;;;;;;259.65;215.00;;;;;;;;;;4863456;28;20216;-81
2021/09/02 12:32:35;;;;;;;139.10;124.43;;;45.30;53.10;;;;;;4878598;28;20205;-84
2021/09/02 12:35:11;;;;;;;7.15;1.15;;;46.70;53.70;;;;;;4878697;28;20235;-83
2021/09/02 12:37:38;;;;;;;8.48;1.20;;;47.20;55.10;;;;;;4893203;28;20204;-82
2021/09/02 12:40:04;;;;;;;46.33;27.17;;;48.10;55.40;;;;;;4877579;28;20583;-86
2021/09/02 12:42:28;;;;;;;46.55;29.40;;;45.50;54.60;;;;;;4878372;28;20185;-82
2021/09/02 12:45:06;;;;;;;33.95;22.90;;;42.60;53.70;;;;;;4878624;28;20193;-80
2021/09/02 12:47:28;;;;;;;5.40;0.80;;;;;;;;;;4878672;28;20400;-81
2021/09/02 12:49:52;;;;;;;6.07;0.88;;;39.90;51.20;;;;;;4877590;28;20232;-83
2021/09/02 12:52:18;;;;;;;12.38;1.70;;;39.00;51.00;;;;;;4877824;28;20550;-79
2021/09/02 12:55:05;;;;;;;8.43;1.25;;;39.70;51.30;;;;;;4877837;28;20201;-79
2021/09/02 12:57:31;;;;;;;8.95;1.27;;;40.50;51.50;;;;;;4878279;28;20197;-81
2021/09/02 12:59:54;;;;;;;6.97;1.02;;;;;;;;;;4877445;28;20254;-82
2021/09/02 13:02:16;;;;;;;14.00;2.00;;;38.60;50.90;;;;;;4875199;28;20189;-84
2021/09/02 13:04:39;;;;;;;10.18;1.48;;;;;;;;;;4877588;28;20212;-81
2021/09/02 13:07:04;;;;;;;7.47;1.00;;;40.60;52.80;;;;;;4878080;28;20232;-81
2021/09/02 13:09:26;;;;;;;27.52;16.08;;;;;;;;;;4877400;28;20233;-81